createdAt,value
2019-02-20T00:00:01.036Z,76.60
2019-02-20T00:02:29.942Z,76.70
2019-02-20T00:04:58.810Z,76.70
2019-02-20T00:07:27.645Z,77.00
2019-02-20T00:09:56.561Z,77.30
2019-02-20T00:12:25.453Z,77.50
2019-02-20T00:14:54.299Z,77.40
2019-02-20T00:17:23.144Z,77.10
2019-02-20T00:19:52.067Z,77.30
2019-02-20T00:22:20.938Z,77.00
2019-02-20T00:24:49.789Z,76.70
2019-02-20T00:27:18.675Z,76.90
2019-02-20T00:29:47.533Z,77.00
2019-02-20T00:32:16.382Z,77.20
2019-02-20T00:34:45.262Z,77.40
2019-02-20T00:37:15.016Z,77.60
2019-02-20T00:39:43.878Z,77.50
2019-02-20T00:42:12.962Z,77.20
2019-02-20T00:44:55.435Z,77.60
2019-02-20T00:47:44.398Z,77.80
2019-02-20T00:50:14.547Z,78.40
2019-02-20T00:52:49.885Z,78.40
2019-02-20T00:55:15.552Z,78.20
2019-02-20T00:57:44.395Z,78.40
2019-02-20T01:00:14.649Z,78.70
2019-02-20T01:02:43.566Z,79.40
2019-02-20T01:05:12.549Z,78.30
2019-02-20T01:07:41.404Z,78.30
2019-02-20T01:10:10.409Z,78.40
2019-02-20T01:12:39.250Z,78.30
2019-02-20T01:15:11.919Z,78.10
2019-02-20T01:17:40.784Z,77.50
2019-02-20T01:20:10.527Z,77.60
2019-02-20T01:22:39.403Z,78.10
2019-02-20T01:25:08.319Z,78.00
2019-02-20T01:27:37.187Z,78.00
2019-02-20T01:30:11.475Z,78.20
2019-02-20T01:32:40.386Z,78.20
2019-02-20T01:35:09.334Z,78.40
2019-02-20T01:37:38.180Z,78.60
2019-02-20T01:40:08.383Z,78.80
2019-02-20T01:42:37.249Z,78.50
2019-02-20T01:45:07.597Z,78.40
2019-02-20T01:47:36.508Z,78.50
2019-02-20T01:50:06.769Z,78.70
2019-02-20T01:52:35.613Z,78.30
2019-02-20T01:55:06.333Z,78.60
2019-02-20T01:57:35.182Z,78.70
2019-02-20T02:00:05.542Z,78.80
2019-02-20T02:02:34.497Z,78.80
2019-02-20T02:05:03.768Z,79.10
2019-02-20T02:07:32.587Z,79.30
2019-02-20T02:10:01.490Z,79.20
2019-02-20T02:12:30.445Z,79.80
2019-02-20T02:14:59.290Z,79.30
2019-02-20T02:17:28.212Z,79.10
2019-02-20T02:19:57.058Z,79.00
2019-02-20T02:22:25.914Z,78.90
2019-02-20T02:24:54.849Z,79.00
2019-02-20T02:27:23.696Z,79.20
2019-02-20T02:29:52.530Z,79.50
2019-02-20T02:32:21.435Z,79.40
2019-02-20T02:34:51.082Z,79.20
2019-02-20T02:37:19.940Z,79.20
2019-02-20T02:39:48.890Z,79.10
2019-02-20T02:42:18.559Z,79.10
2019-02-20T02:44:47.399Z,78.70
2019-02-20T02:47:16.904Z,78.90
2019-02-20T02:49:45.752Z,78.90
2019-02-20T02:52:14.586Z,79.00
2019-02-20T02:55:02.911Z,78.70
2019-02-20T02:57:31.756Z,78.90
2019-02-20T03:00:00.620Z,79.30
2019-02-20T03:02:29.543Z,80.30
2019-02-20T03:04:58.383Z,79.80
2019-02-20T03:07:27.253Z,80.10
2019-02-20T03:09:56.182Z,80.30
2019-02-20T03:12:25.036Z,79.90
2019-02-20T03:14:53.899Z,80.10
2019-02-20T03:17:22.862Z,80.00
2019-02-20T03:19:51.710Z,80.10
2019-02-20T03:22:20.564Z,80.00
2019-02-20T03:24:49.490Z,79.30
2019-02-20T03:27:18.349Z,79.40
2019-02-20T03:29:47.283Z,79.20
2019-02-20T03:32:16.216Z,79.40
2019-02-20T03:34:45.074Z,80.00
2019-02-20T03:37:13.952Z,80.50
2019-02-20T03:39:42.899Z,80.00
2019-02-20T03:42:11.739Z,79.80
2019-02-20T03:44:40.582Z,79.60
2019-02-20T03:47:09.504Z,79.80
2019-02-20T03:49:38.362Z,79.90
2019-02-20T03:52:07.233Z,80.30
2019-02-20T03:54:36.121Z,80.50
2019-02-20T03:57:05.272Z,80.50
2019-02-20T03:59:34.133Z,80.10
2019-02-20T04:02:03.023Z,79.80
2019-02-20T04:04:31.864Z,79.90
2019-02-20T04:07:00.734Z,80.30
2019-02-20T04:09:29.646Z,80.60
2019-02-20T04:11:58.482Z,80.40
2019-02-20T04:14:27.323Z,80.10
2019-02-20T04:16:56.217Z,79.80
2019-02-20T04:19:25.084Z,79.60
2019-02-20T04:21:53.935Z,80.10
2019-02-20T04:24:42.228Z,79.90
2019-02-20T04:27:11.078Z,79.80
2019-02-20T04:29:39.941Z,80.50
2019-02-20T04:32:08.836Z,80.60
2019-02-20T04:34:37.684Z,80.70
2019-02-20T04:37:06.550Z,80.60
2019-02-20T04:39:35.440Z,80.50
2019-02-20T04:42:04.303Z,79.90
2019-02-20T04:44:33.158Z,80.00
2019-02-20T04:47:03.007Z,79.80
2019-02-20T04:49:31.821Z,80.50
2019-02-20T04:52:00.649Z,80.20
2019-02-20T04:54:29.555Z,80.30
2019-02-20T04:56:58.411Z,79.90
2019-02-20T04:59:27.269Z,79.80
2019-02-20T05:01:56.296Z,80.20
2019-02-20T05:04:25.130Z,80.00
2019-02-20T05:06:53.992Z,79.80
2019-02-20T05:09:22.900Z,79.70
2019-02-20T05:11:51.760Z,79.30
2019-02-20T05:14:20.598Z,79.40
2019-02-20T05:16:49.491Z,78.80
2019-02-20T05:19:18.406Z,79.00
2019-02-20T05:21:47.215Z,79.70
2019-02-20T05:24:24.117Z,80.10
2019-02-20T05:26:46.645Z,79.50
2019-02-20T05:29:15.478Z,79.70
2019-02-20T05:31:44.405Z,79.40
2019-02-20T05:34:13.341Z,79.50
2019-02-20T05:36:42.208Z,79.40
2019-02-20T05:39:11.098Z,79.50
2019-02-20T05:41:39.959Z,79.50
2019-02-20T05:44:08.825Z,80.00
2019-02-20T05:46:37.731Z,79.30
2019-02-20T05:49:07.437Z,79.40
2019-02-20T05:51:36.287Z,79.90
2019-02-20T05:54:05.216Z,80.00
2019-02-20T05:56:34.088Z,79.90
2019-02-20T05:59:02.911Z,80.30
2019-02-20T06:01:31.830Z,80.40
2019-02-20T06:04:00.690Z,80.30
2019-02-20T06:06:29.552Z,79.80
2019-02-20T06:08:58.438Z,79.20
2019-02-20T06:11:27.300Z,78.70
2019-02-20T06:13:56.170Z,78.30
2019-02-20T06:16:25.112Z,78.30
2019-02-20T06:18:53.950Z,78.10
2019-02-20T06:21:22.813Z,78.00
2019-02-20T06:23:51.723Z,77.80
2019-02-20T06:26:20.567Z,76.40
2019-02-20T06:28:49.432Z,77.00
2019-02-20T06:31:18.343Z,77.80
2019-02-20T06:33:47.195Z,77.20
2019-02-20T06:36:16.063Z,76.80
2019-02-20T06:38:45.035Z,76.90
2019-02-20T06:41:13.889Z,77.00
2019-02-20T06:43:42.754Z,76.80
2019-02-20T06:46:11.643Z,76.30
2019-02-20T06:48:40.503Z,76.20
2019-02-20T06:51:09.396Z,76.90
2019-02-20T06:53:38.288Z,76.00
2019-02-20T06:56:07.340Z,76.00
2019-02-20T06:58:36.220Z,75.70
2019-02-20T07:01:05.153Z,75.50
2019-02-20T07:03:33.988Z,75.30
2019-02-20T07:06:11.662Z,75.40
2019-02-20T07:08:46.151Z,75.30
2019-02-20T07:11:33.247Z,74.90
2019-02-20T07:14:17.000Z,74.70
2019-02-20T07:16:57.691Z,74.60
2019-02-20T07:19:32.224Z,74.50
2019-02-20T07:22:29.439Z,74.30
2019-02-20T07:25:04.086Z,74.10
2019-02-20T07:27:41.927Z,73.50
2019-02-20T07:30:10.970Z,72.60
2019-02-20T07:32:40.113Z,72.30
2019-02-20T07:35:09.229Z,71.80
2019-02-20T07:37:38.075Z,70.80
2019-02-20T07:40:08.141Z,70.50
2019-02-20T07:42:37.053Z,69.30
2019-02-20T07:45:08.401Z,65.20
2019-02-20T07:47:37.256Z,58.80
2019-02-20T07:50:09.191Z,52.30
2019-02-20T07:52:38.068Z,47.70
2019-02-20T07:55:13.164Z,43.90
2019-02-20T07:57:38.663Z,42.60
2019-02-20T08:00:10.467Z,40.90
2019-02-20T08:02:39.471Z,38.20
2019-02-20T08:05:08.433Z,36.50
2019-02-20T08:07:37.389Z,35.90
2019-02-20T08:10:09.318Z,35.60
2019-02-20T08:12:38.285Z,35.40
2019-02-20T08:15:09.837Z,34.90
2019-02-20T08:17:38.685Z,34.50
2019-02-20T08:20:09.691Z,34.10
2019-02-20T08:22:38.548Z,33.40
2019-02-20T08:25:08.004Z,33.20
2019-02-20T08:27:36.899Z,33.00
2019-02-20T08:30:08.688Z,32.20
2019-02-20T08:32:37.540Z,31.80
2019-02-20T08:35:08.276Z,31.10
2019-02-20T08:37:37.083Z,30.60
2019-02-20T08:40:09.255Z,30.10
2019-02-20T08:42:38.162Z,30.50
2019-02-20T08:45:08.813Z,30.10
2019-02-20T08:47:37.670Z,30.10
2019-02-20T08:50:20.967Z,29.80
2019-02-20T08:52:49.824Z,29.40
2019-02-20T08:55:18.982Z,29.30
2019-02-20T08:57:48.098Z,29.00
2019-02-20T09:00:17.060Z,29.30
2019-02-20T09:02:45.974Z,29.40
2019-02-20T09:05:14.820Z,29.30
2019-02-20T09:07:43.675Z,28.80
2019-02-20T09:10:13.486Z,28.50
2019-02-20T09:12:42.357Z,28.40
2019-02-20T09:15:15.014Z,28.60
2019-02-20T09:17:43.948Z,28.30
2019-02-20T09:20:15.883Z,28.70
2019-02-20T09:22:44.729Z,29.00
2019-02-20T09:25:19.990Z,28.50
2019-02-20T09:27:44.149Z,28.50
2019-02-20T09:30:14.725Z,28.00
2019-02-20T09:32:43.633Z,27.60
2019-02-20T09:35:12.929Z,26.80
2019-02-20T09:37:41.977Z,26.80
2019-02-20T09:40:16.075Z,26.20
2019-02-20T09:42:47.447Z,26.20
2019-02-20T09:45:16.760Z,25.70
2019-02-20T09:47:45.651Z,26.00
2019-02-20T09:50:14.533Z,26.20
2019-02-20T09:52:51.903Z,25.70
2019-02-20T09:55:14.787Z,25.70
2019-02-20T09:57:43.640Z,24.90
2019-02-20T10:00:17.490Z,24.60
2019-02-20T10:02:47.382Z,25.30
2019-02-20T10:05:16.406Z,25.60
2019-02-20T10:07:45.279Z,25.70
2019-02-20T10:10:14.162Z,25.30
2019-02-20T10:12:43.008Z,25.80
2019-02-20T10:15:16.967Z,25.80
2019-02-20T10:17:45.839Z,25.30
2019-02-20T10:20:14.782Z,25.00
2019-02-20T10:22:43.675Z,24.80
2019-02-20T10:25:13.428Z,27.30
2019-02-20T10:27:42.274Z,30.20
2019-02-20T10:30:18.774Z,31.90
2019-02-20T10:32:47.623Z,33.30
2019-02-20T10:35:16.479Z,34.10
2019-02-20T10:37:45.375Z,34.50
2019-02-20T10:40:14.331Z,35.60
2019-02-20T10:42:43.164Z,34.80
2019-02-20T10:45:13.048Z,35.00
2019-02-20T10:47:41.899Z,35.00
2019-02-20T10:50:12.230Z,35.90
2019-02-20T10:52:41.152Z,35.10
2019-02-20T10:55:10.807Z,35.40
2019-02-20T10:57:39.649Z,35.00
2019-02-20T11:00:23.524Z,35.50
2019-02-20T11:02:45.651Z,35.60
2019-02-20T11:05:14.598Z,35.60
2019-02-20T11:07:43.528Z,35.70
2019-02-20T11:10:12.506Z,36.40
2019-02-20T11:12:41.353Z,36.00
2019-02-20T11:15:10.348Z,35.60
2019-02-20T11:17:39.174Z,36.00
2019-02-20T11:20:10.365Z,36.60
2019-02-20T11:22:39.235Z,36.50
2019-02-20T11:25:12.733Z,36.30
2019-02-20T11:27:41.587Z,36.00
2019-02-20T11:30:13.477Z,35.70
2019-02-20T11:32:42.314Z,35.60
2019-02-20T11:35:11.164Z,36.00
2019-02-20T11:37:41.131Z,35.50
2019-02-20T11:40:10.483Z,34.60
2019-02-20T11:42:39.341Z,34.60
2019-02-20T11:45:11.216Z,34.40
2019-02-20T11:47:40.056Z,34.10
2019-02-20T11:50:10.630Z,34.90
2019-02-20T11:52:39.945Z,34.40
2019-02-20T11:55:15.985Z,35.00
2019-02-20T11:57:44.875Z,34.70
2019-02-20T12:00:20.626Z,34.50
2019-02-20T12:02:49.536Z,34.50
2019-02-20T12:05:18.392Z,34.90
2019-02-20T12:07:47.242Z,34.90
2019-02-20T12:10:17.848Z,35.10
2019-02-20T12:12:46.726Z,35.40
2019-02-20T12:15:15.564Z,35.00
2019-02-20T12:17:44.482Z,35.30
2019-02-20T12:20:13.628Z,34.80
2019-02-20T12:22:42.475Z,35.00
2019-02-20T12:25:11.774Z,34.70
2019-02-20T12:27:40.641Z,34.90
2019-02-20T12:30:11.507Z,35.10
2019-02-20T12:32:40.626Z,34.80
2019-02-20T12:35:09.787Z,35.00
2019-02-20T12:37:38.645Z,35.00
2019-02-20T12:40:11.494Z,35.10
2019-02-20T12:42:41.935Z,35.30
2019-02-20T12:45:10.986Z,35.70
2019-02-20T12:47:39.917Z,36.00
2019-02-20T12:50:11.681Z,35.40
2019-02-20T12:52:40.515Z,35.60
2019-02-20T12:55:09.825Z,35.50
2019-02-20T12:57:38.663Z,35.40
2019-02-20T13:00:12.831Z,35.20
2019-02-20T13:02:41.761Z,35.30
2019-02-20T13:05:10.723Z,35.20
2019-02-20T13:07:39.571Z,35.00
2019-02-20T13:10:09.578Z,35.00
2019-02-20T13:12:38.436Z,35.00
2019-02-20T13:15:09.436Z,35.20
2019-02-20T13:17:38.281Z,35.60
2019-02-20T13:20:10.066Z,35.70
2019-02-20T13:22:39.275Z,35.20
2019-02-20T13:25:09.423Z,35.40
2019-02-20T13:27:40.104Z,35.30
2019-02-20T13:30:11.747Z,35.80
2019-02-20T13:32:40.595Z,37.00
2019-02-20T13:35:09.942Z,37.10
2019-02-20T13:37:38.856Z,36.50
2019-02-20T13:40:10.001Z,36.60
2019-02-20T13:42:47.983Z,37.20
2019-02-20T13:45:16.813Z,37.30
2019-02-20T13:47:45.654Z,37.50
2019-02-20T13:50:14.660Z,37.50
2019-02-20T13:52:51.819Z,38.00
2019-02-20T13:55:14.327Z,38.10
2019-02-20T13:57:43.319Z,37.80
2019-02-20T14:00:13.486Z,37.70
2019-02-20T14:02:42.515Z,37.50
2019-02-20T14:05:11.416Z,37.60
2019-02-20T14:07:40.705Z,37.50
2019-02-20T14:10:11.866Z,38.20
2019-02-20T14:12:40.761Z,38.00
2019-02-20T14:15:11.612Z,37.60
2019-02-20T14:17:40.450Z,37.70
2019-02-20T14:20:11.377Z,38.00
2019-02-20T14:22:40.633Z,39.00
2019-02-20T14:25:10.791Z,38.00
2019-02-20T14:27:39.684Z,38.00
2019-02-20T14:30:10.848Z,38.60
2019-02-20T14:32:39.684Z,38.50
2019-02-20T14:35:10.529Z,38.70
2019-02-20T14:37:39.779Z,38.80
2019-02-20T14:40:09.397Z,39.20
2019-02-20T14:42:38.515Z,39.10
2019-02-20T14:45:10.313Z,39.30
2019-02-20T14:47:39.162Z,39.80
2019-02-20T14:50:12.595Z,39.60
2019-02-20T14:52:41.657Z,39.80
2019-02-20T14:55:11.412Z,40.20
2019-02-20T14:57:40.360Z,40.30
2019-02-20T15:00:14.380Z,40.40
2019-02-20T15:02:43.256Z,40.50
2019-02-20T15:05:12.419Z,40.70
2019-02-20T15:07:41.274Z,40.60
2019-02-20T15:10:10.614Z,40.80
2019-02-20T15:12:39.482Z,41.10
2019-02-20T15:15:11.022Z,41.30
2019-02-20T15:17:39.981Z,41.40
2019-02-20T15:20:11.232Z,41.50
2019-02-20T15:22:40.193Z,41.70
2019-02-20T15:25:10.124Z,41.90
2019-02-20T15:27:39.053Z,42.10
2019-02-20T15:30:13.542Z,42.80
2019-02-20T15:32:42.393Z,42.20
2019-02-20T15:35:11.493Z,42.20
2019-02-20T15:37:40.317Z,42.40
2019-02-20T15:40:10.175Z,42.30
2019-02-20T15:42:39.050Z,42.40
2019-02-20T15:45:10.114Z,43.10
2019-02-20T15:47:38.970Z,43.20
2019-02-20T15:50:10.809Z,43.20
2019-02-20T15:52:39.820Z,43.70
2019-02-20T15:55:11.401Z,43.80
2019-02-20T15:57:40.444Z,44.10
2019-02-20T16:00:16.414Z,44.70
2019-02-20T16:02:45.277Z,44.10
2019-02-20T16:05:14.777Z,44.50
2019-02-20T16:07:43.628Z,45.50
2019-02-20T16:10:12.516Z,44.90
2019-02-20T16:12:43.041Z,46.10
2019-02-20T16:15:14.451Z,46.50
2019-02-20T16:17:44.826Z,46.10
2019-02-20T16:20:13.997Z,47.80
2019-02-20T16:22:42.976Z,48.10
2019-02-20T16:25:16.251Z,48.40
2019-02-20T16:27:47.469Z,47.90
2019-02-20T16:30:15.893Z,49.10
2019-02-20T16:32:44.849Z,46.70
2019-02-20T16:35:14.098Z,47.40
2019-02-20T16:37:42.967Z,47.70
2019-02-20T16:40:16.419Z,47.60
2019-02-20T16:42:45.354Z,48.40
2019-02-20T16:45:24.873Z,49.00
2019-02-20T16:47:54.159Z,49.40
2019-02-20T16:50:23.029Z,50.30
2019-02-20T16:52:51.966Z,51.30
2019-02-20T16:55:22.585Z,52.70
2019-02-20T16:57:56.588Z,54.00
2019-02-20T17:00:22.951Z,54.60
2019-02-20T17:02:52.620Z,54.40
2019-02-20T17:05:21.582Z,55.10
2019-02-20T17:08:16.694Z,55.60
2019-02-20T17:10:46.038Z,56.50
2019-02-20T17:13:15.868Z,56.80
2019-02-20T17:15:44.836Z,57.60
2019-02-20T17:18:14.650Z,57.50
2019-02-20T17:21:04.347Z,58.40
2019-02-20T17:23:33.850Z,58.70
2019-02-20T17:26:02.847Z,58.60
2019-02-20T17:28:31.819Z,58.30
2019-02-20T17:31:00.723Z,58.50
2019-02-20T17:33:29.615Z,58.60
2019-02-20T17:35:58.864Z,59.40
2019-02-20T17:38:28.232Z,59.10
2019-02-20T17:40:58.839Z,58.80
2019-02-20T17:43:27.835Z,59.10
2019-02-20T17:45:56.701Z,59.50
2019-02-20T17:48:25.618Z,59.20
2019-02-20T17:50:54.741Z,59.60
2019-02-20T17:53:24.640Z,60.10
2019-02-20T17:55:53.721Z,60.40
2019-02-20T17:58:22.710Z,60.90
2019-02-20T18:00:54.440Z,61.10
2019-02-20T18:03:23.491Z,61.50
2019-02-20T18:05:53.819Z,62.60
2019-02-20T18:08:23.006Z,62.30
2019-02-20T18:10:51.980Z,62.40
2019-02-20T18:13:20.990Z,62.50
2019-02-20T18:15:49.889Z,62.60
2019-02-20T18:18:19.904Z,62.70
2019-02-20T18:20:48.792Z,62.80
2019-02-20T18:23:17.645Z,63.30
2019-02-20T18:25:46.515Z,63.70
2019-02-20T18:28:23.922Z,63.80
2019-02-20T18:30:45.898Z,63.60
2019-02-20T18:33:14.737Z,65.00
2019-02-20T18:35:43.660Z,66.00
2019-02-20T18:38:12.515Z,65.00
2019-02-20T18:40:41.367Z,63.80
2019-02-20T18:43:10.534Z,62.70
2019-02-20T18:45:39.441Z,62.90
2019-02-20T18:48:08.336Z,63.50
2019-02-20T18:50:37.213Z,64.00
2019-02-20T18:53:06.057Z,64.30
2019-02-20T18:55:34.911Z,65.20
2019-02-20T18:58:03.850Z,64.70
2019-02-20T19:00:32.693Z,65.00
2019-02-20T19:03:01.542Z,65.50
2019-02-20T19:05:33.614Z,65.90
2019-02-20T19:08:03.877Z,65.80
2019-02-20T19:10:36.012Z,66.00
2019-02-20T19:13:19.773Z,66.10
2019-02-20T19:16:16.132Z,66.10
2019-02-20T19:19:03.115Z,66.40
2019-02-20T19:21:38.034Z,66.70
2019-02-20T19:24:31.000Z,66.30
2019-02-20T19:27:13.747Z,66.30
2019-02-20T19:29:48.359Z,66.40
2019-02-20T19:32:26.330Z,66.60
2019-02-20T19:35:07.210Z,66.80
2019-02-20T19:37:53.980Z,67.00
2019-02-20T19:40:43.808Z,67.40
2019-02-20T19:43:38.364Z,67.60
2019-02-20T19:46:22.286Z,67.50
2019-02-20T19:49:14.547Z,67.80
2019-02-20T19:51:57.648Z,68.00
2019-02-20T19:54:46.011Z,68.30
2019-02-20T19:57:26.807Z,68.60
2019-02-20T20:00:07.694Z,69.00
2019-02-20T20:02:48.296Z,69.20
2019-02-20T20:05:35.068Z,69.60
2019-02-20T20:08:26.507Z,70.00
2019-02-20T20:11:27.076Z,69.90
2019-02-20T20:14:01.458Z,69.90
2019-02-20T20:16:35.954Z,70.50
2019-02-20T20:19:27.015Z,70.60
2019-02-20T20:22:14.078Z,70.80
2019-02-20T20:24:58.362Z,70.90
2019-02-20T20:27:30.156Z,70.90
2019-02-20T20:30:38.151Z,71.00
2019-02-20T20:33:33.577Z,71.00
2019-02-20T20:36:20.423Z,71.30
2019-02-20T20:39:05.092Z,71.50
2019-02-20T20:41:54.974Z,71.60
2019-02-20T20:44:32.632Z,71.80
2019-02-20T20:47:13.600Z,72.00
2019-02-20T20:49:54.309Z,72.00
2019-02-20T20:52:42.845Z,72.00
2019-02-20T20:55:31.246Z,72.10
2019-02-20T20:58:08.957Z,72.20
2019-02-20T21:00:53.014Z,72.60
2019-02-20T21:03:25.120Z,72.80
2019-02-20T21:06:17.621Z,73.50
2019-02-20T21:08:55.416Z,73.80
2019-02-20T21:11:27.306Z,73.80
2019-02-20T21:14:04.771Z,73.80
2019-02-20T21:16:45.639Z,73.70
2019-02-20T21:19:26.541Z,73.60
2019-02-20T21:22:19.580Z,73.90
2019-02-20T21:25:18.801Z,74.00
2019-02-20T21:28:00.487Z,74.00
2019-02-20T21:30:41.225Z,74.10
2019-02-20T21:33:46.490Z,74.50
2019-02-20T21:36:30.396Z,74.70
2019-02-20T21:39:23.149Z,75.00
2019-02-20T21:41:54.926Z,75.10
2019-02-20T21:44:29.995Z,75.30
2019-02-20T21:47:13.787Z,75.70
2019-02-20T21:49:45.574Z,76.00
2019-02-20T21:52:40.017Z,75.90
2019-02-20T21:55:45.565Z,76.00
2019-02-20T21:58:35.568Z,75.90
2019-02-20T22:01:22.872Z,76.10
2019-02-20T22:04:28.029Z,76.30
2019-02-20T22:07:09.578Z,75.80
2019-02-20T22:09:57.558Z,75.90
2019-02-20T22:12:50.987Z,76.10
2019-02-20T22:15:25.866Z,76.20
2019-02-20T22:18:00.465Z,76.40
2019-02-20T22:20:32.233Z,76.50
2019-02-20T22:23:20.638Z,76.70
2019-02-20T22:25:58.278Z,76.70
2019-02-20T22:28:30.094Z,77.00
2019-02-20T22:31:07.769Z,77.10
2019-02-20T22:33:45.734Z,77.30
2019-02-20T22:36:40.005Z,77.20
2019-02-20T22:39:20.526Z,77.00
2019-02-20T22:42:22.456Z,76.70
2019-02-20T22:45:10.733Z,76.90
2019-02-20T22:47:54.806Z,76.90
2019-02-20T22:50:50.924Z,77.50
2019-02-20T22:53:54.736Z,77.30
2019-02-20T22:57:01.185Z,77.40
2019-02-20T23:00:01.166Z,77.30
2019-02-20T23:02:33.680Z,77.90
2019-02-20T23:05:28.143Z,78.20
2019-02-20T23:08:00.053Z,78.80
2019-02-20T23:10:37.676Z,78.60
2019-02-20T23:13:24.385Z,77.80
2019-02-20T23:15:53.236Z,77.90
2019-02-20T23:18:22.080Z,78.10
2019-02-20T23:20:50.957Z,78.70
2019-02-20T23:23:19.818Z,78.50
2019-02-20T23:25:48.680Z,78.40
2019-02-20T23:28:17.614Z,78.30
2019-02-20T23:30:46.452Z,78.60
2019-02-20T23:33:16.219Z,78.80
2019-02-20T23:35:45.085Z,79.00
2019-02-20T23:38:13.917Z,78.80
2019-02-20T23:40:42.774Z,78.40
2019-02-20T23:43:11.657Z,78.60
2019-02-20T23:45:40.511Z,78.50
2019-02-20T23:48:09.357Z,78.30
2019-02-20T23:50:38.260Z,78.10
2019-02-20T23:53:07.137Z,78.60
2019-02-20T23:55:35.993Z,78.80
2019-02-20T23:58:04.903Z,78.90
